Time;durP1;ratioP1;P1;durP2;ratioP2;P2;SDS_P1;SDS_P2;PMS_P1;PMS_P2;Temp;Humidity;BMP_temperature;BMP_pressure;BME280_temperature;BME280_humidity;BME280_pressure;Samples;Min_cycle;Max_cycle;Signal;HPM_P1;HPM_P2
2023/09/14 00:01:04;;;;;;;2.38;2.17;;;15.10;99.90;;;-141.84;83.89;20204.06;5044322;28;20769;-65
2023/09/14 00:03:32;;;;;;;2.42;2.20;;;15.20;99.90;;;-141.84;84.16;20155.28;5044475;28;20681;-65
2023/09/14 00:06:01;;;;;;;4.88;2.10;;;15.20;99.90;;;-141.84;83.41;20179.69;5042828;28;20309;-65
2023/09/14 00:08:30;;;;;;;2.60;1.70;;;15.20;99.90;;;-141.84;83.96;20155.28;5034869;28;20642;-64
2023/09/14 00:11:02;;;;;;;3.95;2.22;;;15.20;99.90;;;-141.84;84.50;20171.56;5044246;28;20269;-64
2023/09/14 00:13:31;;;;;;;2.10;1.90;;;15.20;99.90;;;-141.84;83.97;20179.69;5044791;28;20287;-63
2023/09/14 00:15:59;;;;;;;3.38;1.92;;;15.20;99.90;;;-141.84;83.89;20173.59;5044294;28;20206;-64
2023/09/14 00:18:28;;;;;;;4.70;2.17;;;15.20;99.90;;;-141.84;82.80;20195.94;5036592;28;20201;-64
2023/09/14 00:20:57;;;;;;;3.55;1.90;;;15.20;99.90;;;-141.84;82.27;20183.75;5043564;28;20306;-64
2023/09/14 00:23:25;;;;;;;3.22;1.77;;;15.20;99.90;;;-141.84;83.21;20179.69;5043258;28;20233;-65
2023/09/14 00:25:55;;;;;;;2.53;2.13;;;15.30;99.90;;;-141.84;83.94;20173.59;5043346;28;20257;-65
2023/09/14 00:28:23;;;;;;;2.97;2.00;;;15.20;99.90;;;-141.84;83.22;20177.66;5036264;28;20232;-64
2023/09/14 00:30:53;;;;;;;3.72;2.22;;;15.10;99.90;;;-141.84;82.19;20208.13;5044018;28;20277;-65
2023/09/14 00:33:23;;;;;;;5.13;2.05;;;15.20;99.90;;;-141.84;82.95;20218.31;5044070;28;20591;-65
2023/09/14 00:35:51;;;;;;;3.85;1.90;;;15.20;99.90;;;-141.84;83.14;20171.56;5042907;28;20302;-67
2023/09/14 00:38:19;;;;;;;5.00;2.20;;;15.20;99.90;;;-141.84;82.81;20161.38;5036300;28;20312;-65
2023/09/14 00:40:48;;;;;;;3.10;2.22;;;15.20;99.90;;;-141.84;81.41;20208.13;5043324;28;20237;-63
2023/09/14 00:43:19;;;;;;;4.00;2.35;;;15.20;99.90;;;-141.84;82.08;20200.00;5043459;28;20251;-64
2023/09/14 00:45:47;;;;;;;3.72;2.15;;;15.20;99.90;;;-141.84;82.85;20191.88;5043258;28;20224;-64
2023/09/14 00:48:17;;;;;;;4.40;2.47;;;15.20;99.90;;;-141.84;82.84;20147.16;5036846;28;20210;-63
2023/09/14 00:50:47;;;;;;;4.35;2.67;;;15.10;99.90;;;-141.84;83.48;20159.34;5042751;28;20237;-65
2023/09/14 00:53:19;;;;;;;3.30;2.53;;;15.20;99.90;;;-141.84;84.16;20157.31;5043029;28;20241;-64
2023/09/14 00:58:30;;;;;;;4.22;2.70;;;15.00;99.90;;;-141.84;83.87;20185.78;5633558;22;20234;-64
2023/09/14 01:01:00;;;;;;;3.38;2.70;;;15.10;99.90;;;-141.84;83.74;20145.13;4983475;28;20302;-64
2023/09/14 01:03:28;;;;;;;3.40;2.85;;;15.10;99.90;;;-141.84;83.57;20200.00;4984123;28;20610;-65
2023/09/14 01:05:58;;;;;;;5.53;3.25;;;15.10;99.90;;;-141.84;83.08;20169.53;4985494;28;20235;-64
2023/09/14 01:08:26;;;;;;;4.18;3.47;;;15.10;99.90;;;-141.84;82.62;20195.94;4991141;28;20227;-64
2023/09/14 01:10:54;;;;;;;4.80;3.40;;;15.10;99.90;;;-141.84;83.35;20167.47;4984077;28;20314;-65
2023/09/14 01:13:38;;;;;;;4.32;3.45;;;15.10;99.90;;;-141.84;83.65;20159.34;4983320;28;20273;-65
2023/09/14 01:16:16;;;;;;;4.75;4.25;;;15.20;99.90;;;-141.84;83.23;20153.25;4982991;28;20645;-64
2023/09/14 01:18:53;;;;;;;8.18;4.30;;;15.20;99.90;;;-141.84;82.66;20173.59;4983358;28;20207;-64
2023/09/14 01:22:09;;;;;;;4.88;4.10;;;15.10;99.90;;;-141.84;82.69;20161.38;4983706;28;20250;-64
2023/09/14 01:24:54;;;;;;;7.97;4.00;;;15.10;99.90;;;-141.84;82.23;20179.69;4975683;28;20306;-64
2023/09/14 01:27:23;;;;;;;4.93;4.13;;;15.10;99.90;;;-141.84;83.09;20189.84;4983541;28;20212;-64
2023/09/14 01:29:52;;;;;;;6.30;3.55;;;15.10;99.90;;;-141.84;83.65;20177.66;4983097;28;20325;-64
2023/09/14 01:32:20;;;;;;;4.93;3.85;;;15.10;99.90;;;-141.84;84.09;20130.91;4974743;28;20722;-64
2023/09/14 01:34:48;;;;;;;5.70;3.88;;;15.10;99.90;;;-141.84;83.74;20137.00;4983408;28;20223;-64
2023/09/14 01:37:17;;;;;;;4.55;3.80;;;15.00;99.90;;;-141.84;81.47;20208.13;4995864;28;20234;-65
2023/09/14 01:39:47;;;;;;;4.35;3.55;;;15.10;99.90;;;-141.84;81.28;20163.41;5002896;28;20210;-64
2023/09/14 01:42:15;;;;;;;4.60;3.58;;;15.10;99.90;;;-141.84;81.62;20175.63;4975653;28;20560;-63
2023/09/14 01:44:46;;;;;;;4.75;3.50;;;15.10;99.90;;;-141.84;82.73;20159.34;4983371;28;20267;-63
2023/09/14 01:47:14;;;;;;;5.50;3.92;;;15.10;99.90;;;-141.84;83.05;20155.28;4983022;28;20326;-64
2023/09/14 01:49:42;;;;;;;4.50;3.75;;;15.00;99.90;;;-141.84;81.51;20191.88;4982732;28;20317;-64
2023/09/14 01:52:11;;;;;;;6.05;3.80;;;15.00;99.90;;;-141.84;81.91;20143.09;4983117;28;20259;-63
2023/09/14 01:54:39;;;;;;;7.72;3.60;;;15.00;99.90;;;-141.84;82.17;20149.19;4983216;28;20595;-63
2023/09/14 01:57:08;;;;;;;6.13;3.45;;;15.00;99.90;;;-141.84;82.21;20147.16;4983037;28;20235;-64
2023/09/14 01:59:36;;;;;;;6.65;3.60;;;14.90;99.90;;;-141.84;82.56;20147.16;4982339;28;20290;-64
2023/09/14 02:02:06;;;;;;;4.70;3.63;;;14.90;99.90;;;-141.84;82.60;20090.25;4982605;28;20310;-64
2023/09/14 02:04:34;;;;;;;5.22;3.47;;;14.90;99.90;;;-141.84;83.16;20149.19;4974975;28;20619;-65
2023/09/14 02:07:02;;;;;;;5.28;3.30;;;15.00;99.90;;;-141.84;83.73;20147.16;4994027;28;20313;-65
2023/09/14 02:09:30;;;;;;;5.57;3.28;;;14.90;99.90;;;-141.84;83.38;20143.09;4989845;28;20221;-63
2023/09/14 02:11:59;;;;;;;6.30;4.25;;;15.00;99.90;;;-141.84;82.48;20163.41;4982651;28;20234;-63
2023/09/14 02:14:27;;;;;;;3.72;3.33;;;14.90;99.90;;;-141.84;81.63;20185.78;4974689;28;20265;-65
2023/09/14 02:16:55;;;;;;;4.57;3.03;;;15.00;99.90;;;-141.84;81.79;20167.47;4982940;28;20315;-64
2023/09/14 02:19:24;;;;;;;5.35;3.28;;;15.00;99.90;;;-141.84;80.97;20193.91;4982714;28;20671;-64
2023/09/14 02:21:53;;;;;;;5.72;3.58;;;15.00;99.90;;;-141.84;80.69;20191.88;4982290;28;20204;-64
2023/09/14 02:24:21;;;;;;;4.43;3.22;;;15.00;99.90;;;-141.84;80.80;20145.13;4975065;28;20208;-64
2023/09/14 02:26:51;;;;;;;4.60;3.35;;;14.90;99.90;;;-141.84;81.82;20175.63;4982132;28;20666;-63
2023/09/14 02:29:19;;;;;;;4.43;3.38;;;14.90;99.90;;;-141.84;82.37;20167.47;4982630;28;20239;-65
2023/09/14 02:31:47;;;;;;;4.60;3.42;;;14.90;99.90;;;-141.84;82.37;20149.19;4984339;28;20251;-64
2023/09/14 02:34:16;;;;;;;3.85;3.10;;;14.90;99.90;;;-141.84;82.56;20122.78;4979244;28;20926;-60
2023/09/14 02:36:45;;;;;;;6.45;3.67;;;14.90;99.90;;;-141.84;81.88;20147.16;4995104;28;20203;-60
2023/09/14 02:39:14;;;;;;;6.05;2.92;;;14.90;99.90;;;-141.84;82.89;20179.69;4987904;28;20686;-60
2023/09/14 02:41:42;;;;;;;4.03;3.05;;;15.00;99.90;;;-141.84;81.58;20220.34;4986210;28;20306;-61
2023/09/14 02:44:12;;;;;;;5.90;2.95;;;;;;;-141.84;82.95;20161.38;4986072;28;20323;-61
2023/09/14 02:46:40;;;;;;;4.50;3.10;;;14.90;99.90;;;-141.84;84.00;20137.00;4982551;28;20231;-60
2023/09/14 02:49:09;;;;;;;5.10;3.67;;;14.90;99.90;;;-141.84;83.04;20151.22;4986019;28;20274;-60
2023/09/14 02:51:37;;;;;;;5.28;3.20;;;14.90;99.90;;;-141.84;83.85;20116.66;4986471;28;20208;-60
2023/09/14 02:54:07;;;;;;;7.18;3.80;;;14.90;99.90;;;-141.84;83.54;20137.00;4985869;28;20231;-59
2023/09/14 02:56:35;;;;;;;5.65;3.40;;;14.80;99.90;;;-141.84;83.03;20132.94;4978089;28;20330;-61
2023/09/14 02:59:03;;;;;;;6.20;3.25;;;14.80;99.90;;;-141.84;83.54;20118.69;4985675;28;20309;-60
2023/09/14 03:01:32;;;;;;;3.47;3.10;;;14.80;99.90;;;-141.84;83.75;20141.06;4985260;28;20306;-60
2023/09/14 03:04:01;;;;;;;6.30;3.38;;;14.80;99.90;;;-141.84;81.70;20155.28;4985796;28;20322;-60
2023/09/14 03:06:29;;;;;;;5.03;2.95;;;14.80;99.90;;;-141.84;81.45;20153.25;4984353;28;20288;-61
2023/09/14 03:08:58;;;;;;;5.80;3.47;;;14.80;99.90;;;-141.84;82.21;20128.88;4996507;28;20227;-60
2023/09/14 03:11:27;;;;;;;5.45;3.00;;;14.80;99.90;;;-141.84;79.91;20145.13;4985793;28;20258;-61
2023/09/14 03:13:56;;;;;;;4.95;2.97;;;14.80;99.90;;;-141.84;79.33;20197.97;4985511;28;20259;-61
2023/09/14 03:16:24;;;;;;;6.65;3.13;;;14.80;99.90;;;-141.84;80.07;20191.88;4977162;28;20238;-61
2023/09/14 03:18:52;;;;;;;4.80;3.33;;;14.80;99.90;;;-141.84;79.63;20187.81;4985517;28;20230;-60
2023/09/14 03:21:26;;;;;;;3.67;3.20;;;14.80;99.90;;;-141.84;80.42;20149.19;4985491;28;20215;-60
2023/09/14 03:23:55;;;;;;;6.13;2.75;;;14.70;99.90;;;-141.84;81.30;20102.44;4985714;28;20741;-60
2023/09/14 03:26:25;;;;;;;4.90;3.00;;;14.60;99.90;;;-141.84;81.56;20102.44;4977166;28;20977;-60
2023/09/14 03:28:55;;;;;;;5.93;3.40;;;14.60;99.90;;;-141.84;80.12;20139.03;4985697;28;20290;-60
2023/09/14 03:31:25;;;;;;;5.65;3.00;;;14.70;99.90;;;-141.84;80.97;20114.63;4985140;28;20249;-60
2023/09/14 03:33:53;;;;;;;6.28;3.45;;;14.70;99.90;;;-141.84;80.20;20110.56;4985005;28;20243;-60
2023/09/14 03:36:22;;;;;;;5.25;3.55;;;14.70;99.90;;;-141.84;79.62;20147.16;4982789;28;20246;-59
2023/09/14 03:38:51;;;;;;;3.67;2.90;;;14.60;99.90;;;-141.84;79.32;20110.56;5004752;28;20276;-59
2023/09/14 03:41:19;;;;;;;5.53;3.08;;;14.60;99.90;;;-141.84;78.97;20157.31;4999397;28;20223;-60
2023/09/14 03:43:47;;;;;;;7.38;3.03;;;14.50;99.90;;;-141.84;79.13;20167.47;4984867;28;20237;-60
2023/09/14 03:46:17;;;;;;;5.80;3.03;;;14.60;99.90;;;-141.84;79.01;20151.22;4977238;28;20266;-60
2023/09/14 03:48:45;;;;;;;5.80;2.95;;;14.60;99.90;;;-141.84;79.08;20132.94;4984703;28;20210;-60
2023/09/14 03:51:14;;;;;;;7.57;3.25;;;14.60;99.90;;;-141.84;80.00;20126.84;4985141;28;20219;-60
2023/09/14 03:53:42;;;;;;;5.15;2.83;;;14.50;99.90;;;-141.84;80.44;20108.53;4984522;28;20606;-61
2023/09/14 03:56:10;;;;;;;4.97;2.60;;;14.50;99.90;;;-141.84;80.37;20122.78;4984723;28;20305;-60
2023/09/14 03:58:39;;;;;;;4.75;3.10;;;14.50;99.90;;;-141.84;80.14;20124.81;4979475;28;20238;-61
2023/09/14 04:01:07;;;;;;;4.07;2.80;;;14.50;99.90;;;-141.84;80.62;20090.25;4984214;28;20231;-60
2023/09/14 04:03:37;;;;;;;4.43;2.97;;;14.60;99.90;;;-141.84;80.18;20120.75;4985093;28;20630;-60
2023/09/14 04:06:05;;;;;;;7.03;3.05;;;14.60;99.90;;;-141.84;80.21;20157.31;4987736;28;20305;-60
2023/09/14 04:08:33;;;;;;;4.57;2.90;;;14.60;99.90;;;-141.84;79.52;20110.56;4990630;28;20270;-60
2023/09/14 04:11:02;;;;;;;4.25;2.90;;;14.60;99.90;;;-141.84;79.82;20110.56;4984847;28;20251;-60
2023/09/14 04:13:32;;;;;;;6.05;3.13;;;14.60;99.90;;;-141.84;80.32;20108.53;4984162;28;20223;-61
2023/09/14 04:16:04;;;;;;;6.97;3.22;;;14.50;99.90;;;-141.84;80.24;20145.13;4984334;28;20218;-60
2023/09/14 04:18:37;;;;;;;5.18;3.05;;;14.50;99.90;;;-141.84;79.49;20143.09;4976953;28;20214;-60
2023/09/14 04:21:07;;;;;;;5.85;3.33;;;14.50;99.90;;;-141.84;79.45;20126.84;4984413;28;20610;-60
2023/09/14 04:23:35;;;;;;;4.55;3.03;;;14.50;99.90;;;-141.84;78.26;20128.88;4984512;28;20231;-61
2023/09/14 04:26:04;;;;;;;7.28;3.00;;;14.50;99.90;;;-141.84;78.65;20132.94;4983700;28;20255;-60
2023/09/14 04:28:32;;;;;;;5.97;2.90;;;14.50;99.90;;;-141.84;78.62;20102.44;4976534;28;20223;-61
2023/09/14 04:31:04;;;;;;;7.45;3.13;;;14.40;99.90;;;-141.84;79.10;20134.97;4984278;28;20215;-60
2023/09/14 04:33:35;;;;;;;5.55;3.08;;;14.40;99.90;;;-141.84;79.65;20082.13;4984307;28;20207;-60
2023/09/14 04:36:06;;;;;;;4.85;2.88;;;14.40;99.90;;;-141.84;79.40;20120.75;4986730;28;20258;-60
2023/09/14 04:38:34;;;;;;;6.47;2.90;;;14.40;99.90;;;-141.84;79.35;20114.63;4995836;28;20633;-60
2023/09/14 04:41:05;;;;;;;5.50;2.90;;;14.50;99.90;;;-141.84;78.06;20163.41;5000729;28;20645;-61
2023/09/14 04:43:33;;;;;;;3.60;2.63;;;14.50;99.90;;;-141.84;78.92;20147.16;4983802;28;20282;-61
2023/09/14 04:46:04;;;;;;;5.97;2.75;;;14.50;99.90;;;-141.84;78.40;20112.59;4983522;28;21242;-62
2023/09/14 04:48:32;;;;;;;6.60;3.25;;;14.40;99.90;;;-141.84;78.76;20153.25;4976261;28;20905;-61
2023/09/14 04:51:01;;;;;;;6.20;3.03;;;14.50;99.90;;;-141.84;79.08;20130.91;4983606;28;20641;-60
2023/09/14 04:53:31;;;;;;;4.10;3.05;;;14.40;99.90;;;-141.84;79.62;20128.88;4966880;28;20625;-61
2023/09/14 04:55:59;;;;;;;5.07;2.75;;;14.50;99.90;;;-141.84;79.51;20124.81;4964532;28;20244;-60
2023/09/14 04:58:27;;;;;;;4.25;2.65;;;14.50;99.90;;;-141.84;78.18;20171.56;4956006;28;20258;-60
2023/09/14 05:00:56;;;;;;;5.68;3.05;;;14.50;99.90;;;-141.84;78.66;20143.09;4963794;28;20734;-60
2023/09/14 05:03:24;;;;;;;8.35;2.95;;;14.40;99.90;;;-141.84;78.13;20173.59;4964602;28;20208;-61
2023/09/14 05:05:55;;;;;;;5.43;2.67;;;14.40;99.90;;;-141.84;77.61;20116.66;4967358;28;20232;-61
2023/09/14 05:08:25;;;;;;;6.97;3.13;;;14.50;99.90;;;-141.84;77.78;20108.53;4991538;28;20230;-59
2023/09/14 05:10:54;;;;;;;6.18;3.42;;;14.40;99.90;;;-141.84;78.29;20143.09;4983780;28;20659;-60
2023/09/14 05:13:23;;;;;;;5.45;2.88;;;14.40;99.90;;;-141.84;77.80;20161.38;4984283;28;20231;-60
2023/09/14 05:15:51;;;;;;;6.10;3.00;;;14.40;99.90;;;-141.84;77.82;20163.41;4983358;28;20215;-59
2023/09/14 05:18:20;;;;;;;5.32;2.83;;;14.40;99.90;;;-141.84;78.65;20132.94;4975770;28;20239;-60
2023/09/14 05:20:49;;;;;;;5.97;3.05;;;14.40;99.90;;;-141.84;78.99;20132.94;4983103;28;20282;-61
2023/09/14 05:23:17;;;;;;;7.30;3.10;;;14.40;99.90;;;-141.84;78.04;20163.41;4983246;28;20230;-60
2023/09/14 05:25:46;;;;;;;7.13;3.30;;;14.40;99.90;;;-141.84;77.21;20153.25;4983069;28;20248;-61
2023/09/14 05:28:16;;;;;;;7.60;3.08;;;14.40;99.90;;;-141.84;77.25;20151.22;4980245;28;20239;-59
2023/09/14 05:30:44;;;;;;;8.90;3.25;;;14.40;99.90;;;-141.84;77.02;20179.69;4982979;28;20211;-60
2023/09/14 05:33:13;;;;;;;7.00;3.00;;;14.30;99.90;;;-141.84;77.63;20139.03;4983490;28;20246;-59
2023/09/14 05:35:43;;;;;;;6.60;2.63;;;14.30;99.90;;;-141.84;77.24;20143.09;4983582;28;20234;-61
2023/09/14 05:38:11;;;;;;;5.50;2.75;;;14.30;99.90;;;-141.84;77.89;20134.97;5002341;28;20284;-61
2023/09/14 05:40:40;;;;;;;3.47;2.40;;;14.30;99.90;;;-141.84;77.78;20110.56;4999151;28;20728;-61
2023/09/14 05:43:08;;;;;;;5.45;2.65;;;14.20;99.90;;;-141.84;78.34;20139.03;4963669;28;20251;-61
2023/09/14 05:45:38;;;;;;;6.07;2.65;;;14.30;99.90;;;-141.84;77.71;20143.09;4973464;28;20258;-61
2023/09/14 05:48:07;;;;;;;3.40;1.95;;;14.30;99.90;;;-141.84;76.84;20132.94;4979436;28;20599;-61
2023/09/14 05:50:35;;;;;;;6.75;2.60;;;14.30;99.90;;;-141.84;76.47;20177.66;4954991;28;20239;-61
2023/09/14 05:53:04;;;;;;;6.63;2.50;;;14.30;99.90;;;-141.84;77.85;20149.19;4962960;28;20267;-61
2023/09/14 05:55:32;;;;;;;7.38;2.50;;;14.30;99.90;;;-141.84;76.51;20165.44;4963144;28;20224;-61
2023/09/14 05:58:00;;;;;;;5.22;2.50;;;14.30;99.90;;;-141.84;77.69;20132.94;4963407;28;20263;-61
2023/09/14 06:00:28;;;;;;;7.43;2.85;;;14.40;99.90;;;-141.84;76.93;20155.28;4964793;28;20199;-61
2023/09/14 06:02:58;;;;;;;6.05;2.50;;;14.40;99.90;;;-141.84;76.77;20143.09;4982497;28;20245;-62
2023/09/14 06:05:26;;;;;;;3.13;2.17;;;14.40;99.90;;;-141.84;76.81;20149.19;4982731;28;20266;-60
2023/09/14 06:07:55;;;;;;;5.90;2.58;;;14.30;99.90;;;-141.84;75.79;20200.00;5004416;28;20320;-61
2023/09/14 06:10:24;;;;;;;7.10;2.67;;;14.30;99.90;;;-141.84;76.33;20122.78;4978987;28;20273;-61
2023/09/14 06:12:52;;;;;;;7.15;2.97;;;14.40;99.90;;;-141.84;76.65;20165.44;4986970;28;20203;-62
2023/09/14 06:15:20;;;;;;;7.70;2.72;;;14.40;99.90;;;-141.84;76.35;20187.81;4987131;28;20609;-62
2023/09/14 06:17:48;;;;;;;5.78;2.50;;;14.40;99.90;;;-141.84;76.79;20159.34;4986611;28;20253;-61
2023/09/14 06:20:18;;;;;;;7.78;3.05;;;14.40;99.90;;;-141.84;75.59;20204.06;4978508;28;20227;-60
2023/09/14 06:22:46;;;;;;;7.93;2.70;;;14.40;99.90;;;-141.84;75.89;20183.75;4986354;28;20891;-60
2023/09/14 06:25:15;;;;;;;6.30;2.50;;;14.50;99.90;;;-141.84;75.35;20208.13;4986568;28;20306;-61
2023/09/14 06:27:44;;;;;;;6.60;3.05;;;14.50;99.90;;;-141.84;75.39;20210.16;4986229;28;20224;-61
2023/09/14 06:30:13;;;;;;;4.20;2.22;;;14.50;99.90;;;-141.84;75.45;20212.19;4986709;28;20242;-60
2023/09/14 06:32:41;;;;;;;4.65;2.20;;;14.60;99.90;;;-141.84;73.81;20277.25;4985971;28;20231;-61
2023/09/14 06:35:10;;;;;;;4.35;2.42;;;14.70;99.90;;;-141.84;74.93;20244.72;4986114;28;20246;-61
2023/09/14 06:37:40;;;;;;;6.35;2.80;;;14.70;99.90;;;-141.84;73.96;20273.19;5001666;28;20225;-62
2023/09/14 06:40:10;;;;;;;7.60;2.50;;;14.80;99.90;;;-141.84;73.80;20297.56;5005672;28;20335;-61
2023/09/14 06:42:38;;;;;;;6.32;2.55;;;14.80;99.90;;;-141.84;74.04;20277.25;4983699;28;20683;-61
2023/09/14 06:45:08;;;;;;;5.43;2.28;;;14.80;99.90;;;-141.84;73.45;20319.94;4976985;28;20243;-60
2023/09/14 06:47:36;;;;;;;6.22;2.60;;;14.90;99.90;;;-141.84;72.61;20358.56;4966895;28;20315;-61
2023/09/14 06:50:06;;;;;;;7.18;2.72;;;15.10;99.90;;;-141.84;71.09;20382.94;4981486;28;20239;-60
2023/09/14 06:52:34;;;;;;;6.45;2.42;;;15.20;99.90;;;-141.84;71.03;20413.44;4977668;28;20269;-60
2023/09/14 06:55:04;;;;;;;7.28;2.40;;;15.30;99.90;;;-141.84;71.33;20439.84;4982565;28;20761;-60
2023/09/14 06:57:33;;;;;;;4.47;2.40;;;15.40;99.90;;;-141.84;70.87;20443.91;4986062;28;20207;-59
2023/09/14 07:00:07;;;;;;;6.15;2.47;;;15.50;99.90;;;-141.84;70.25;20511.00;4982362;28;20223;-59
2023/09/14 07:02:36;;;;;;;8.68;2.60;;;15.60;99.90;;;-141.84;68.24;20508.97;4977373;28;22105;-59
2023/09/14 07:05:05;;;;;;;5.35;2.35;;;15.60;99.90;;;-141.84;69.01;20519.13;4984519;28;20219;-60
2023/09/14 07:07:33;;;;;;;6.32;3.22;;;15.60;99.90;;;-141.84;68.37;20549.63;5000360;28;20226;-60
2023/09/14 07:10:04;;;;;;;5.75;2.92;;;15.60;99.90;;;-141.84;67.38;20574.00;4987252;28;20231;-59
2023/09/14 07:12:32;;;;;;;7.47;2.50;;;15.60;99.90;;;-141.84;68.37;20533.34;4976683;28;20222;-59
2023/09/14 07:15:00;;;;;;;6.13;2.72;;;15.60;99.90;;;-141.84;68.22;20547.59;4985459;28;20305;-59
2023/09/14 07:17:29;;;;;;;5.00;2.47;;;15.60;99.90;;;-141.84;68.66;20574.00;4984212;28;20228;-59
2023/09/14 07:19:57;;;;;;;8.77;3.08;;;15.60;99.90;;;-141.84;68.24;20561.81;4984254;28;20234;-59
2023/09/14 07:22:26;;;;;;;6.60;2.70;;;15.80;99.90;;;-141.84;67.87;20590.28;4976671;28;20629;-59
2023/09/14 07:24:54;;;;;;;7.07;2.80;;;15.90;99.90;;;-141.84;67.18;20643.13;4984404;28;20242;-59
2023/09/14 07:27:24;;;;;;;5.30;2.83;;;16.00;99.90;;;-141.84;67.08;20643.13;4969982;28;20355;-59
2023/09/14 07:29:52;;;;;;;7.45;2.78;;;16.00;99.90;;;-141.84;66.05;20630.94;4966017;28;20314;-59
2023/09/14 07:32:21;;;;;;;4.82;2.40;;;16.00;99.90;;;-141.84;67.04;20641.09;4967641;28;20714;-59
2023/09/14 07:34:49;;;;;;;4.38;2.95;;;16.00;99.90;;;-141.84;66.70;20612.63;4984706;28;20810;-60
2023/09/14 07:37:17;;;;;;;8.70;3.15;;;16.10;99.90;;;-141.84;66.36;20626.88;4995125;28;20231;-59
2023/09/14 07:39:46;;;;;;;8.18;3.20;;;16.00;99.90;;;-141.84;67.38;20612.63;4982344;28;20222;-60
2023/09/14 07:42:14;;;;;;;4.38;2.60;;;16.00;99.90;;;-141.84;67.95;20578.09;4981558;28;20204;-61
2023/09/14 07:44:44;;;;;;;6.00;2.80;;;16.10;99.90;;;-141.84;67.55;20608.56;4982711;28;20289;-60
2023/09/14 07:47:12;;;;;;;5.40;2.90;;;16.00;99.90;;;-141.84;67.33;20561.81;4985529;28;20662;-62
2023/09/14 07:49:40;;;;;;;5.53;2.95;;;15.80;99.90;;;-141.84;68.50;20563.84;4979140;28;20315;-61
2023/09/14 07:52:08;;;;;;;5.65;3.08;;;15.80;99.90;;;-141.84;68.33;20594.34;4964840;28;20236;-61
2023/09/14 07:54:37;;;;;;;6.00;2.88;;;15.90;99.90;;;-141.84;68.72;20586.22;4977537;28;20234;-62
2023/09/14 07:57:05;;;;;;;5.05;2.70;;;15.90;99.90;;;-141.84;68.78;20618.72;4985676;28;20243;-64
2023/09/14 07:59:34;;;;;;;7.65;2.95;;;16.00;99.90;;;-141.84;66.98;20702.09;4968033;28;20295;-63
2023/09/14 08:02:03;;;;;;;6.03;2.90;;;16.30;99.90;;;-141.84;65.67;20791.53;4976336;28;20234;-64
2023/09/14 08:04:31;;;;;;;6.40;3.40;;;16.60;99.90;;;-141.84;65.73;20789.50;4977692;28;20241;-64
2023/09/14 08:07:00;;;;;;;6.82;2.80;;;16.80;99.90;;;-141.84;64.70;20844.38;4995178;28;20242;-65
2023/09/14 08:09:28;;;;;;;7.05;2.88;;;16.80;99.90;;;-141.84;64.92;20830.16;4990416;28;20223;-62
2023/09/14 08:11:56;;;;;;;6.55;3.03;;;16.90;99.90;;;-141.84;65.83;20817.94;4984627;28;20244;-61
2023/09/14 08:14:24;;;;;;;7.97;3.10;;;16.90;99.90;;;-141.84;66.90;20820.00;4984883;28;20266;-60
2023/09/14 08:16:52;;;;;;;3.95;2.65;;;17.00;99.90;;;-141.84;66.17;20813.88;4961237;28;20290;-60
2023/09/14 08:19:22;;;;;;;6.20;2.95;;;;;;;-141.84;65.16;20830.16;4977502;28;20730;-62
2023/09/14 08:21:52;;;;;;;9.00;3.38;;;;;;;-141.84;66.49;20795.59;4984215;28;20233;-61
2023/09/14 08:24:20;;;;;;;5.57;3.10;;;17.00;99.90;;;-141.84;66.14;20822.03;4984316;28;20303;-61
2023/09/14 08:26:48;;;;;;;5.88;2.92;;;17.10;99.90;;;-141.84;66.77;20801.69;4977233;28;20367;-61
2023/09/14 08:29:16;;;;;;;6.85;3.10;;;17.00;99.90;;;-141.84;67.60;20744.78;4983438;28;20239;-60
2023/09/14 08:31:45;;;;;;;5.90;3.38;;;16.90;99.90;;;-141.84;66.50;20783.41;4984079;28;20282;-60
2023/09/14 08:34:13;;;;;;;7.20;2.97;;;16.90;99.90;;;-141.84;67.05;20754.94;4984084;28;20250;-62
2023/09/14 08:36:43;;;;;;;5.80;3.17;;;16.90;99.90;;;-141.84;66.24;20854.53;4984324;28;20700;-63
2023/09/14 08:39:11;;;;;;;7.78;2.97;;;17.00;99.90;;;-141.84;66.34;20815.91;5003912;28;20257;-62
2023/09/14 08:41:44;;;;;;;7.03;3.05;;;16.90;99.90;;;-141.84;65.72;20854.53;4995079;28;20235;-60
2023/09/14 08:44:15;;;;;;;6.18;3.45;;;17.10;99.90;;;-141.84;65.93;20901.31;4983892;28;20263;-64
2023/09/14 08:46:44;;;;;;;5.47;2.70;;;17.20;99.90;;;-141.84;65.75;20895.19;4976633;28;20231;-61
2023/09/14 08:49:16;;;;;;;5.03;2.58;;;17.40;99.90;;;-141.84;64.83;21009.03;4983584;28;20266;-64
2023/09/14 08:51:47;;;;;;;6.00;3.17;;;17.80;99.90;;;-141.84;61.27;21126.97;4983352;28;20212;-63
2023/09/14 08:54:15;;;;;;;4.88;2.70;;;18.10;99.90;;;-141.84;61.62;21143.22;4983335;28;20215;-62
2023/09/14 08:56:46;;;;;;;4.18;2.55;;;18.30;99.90;;;-141.84;59.17;21220.47;4957451;28;20314;-64
2023/09/14 08:59:19;;;;;;;5.55;2.78;;;18.40;99.90;;;-141.84;59.29;21192.03;4964321;28;20235;-62
2023/09/14 09:01:48;;;;;;;3.90;2.80;;;18.40;99.90;;;-141.84;60.33;21163.56;4963783;28;20318;-63
2023/09/14 09:04:17;;;;;;;5.35;2.97;;;18.50;99.90;;;-141.84;60.12;21169.66;4964312;28;20235;-63
2023/09/14 09:06:48;;;;;;;7.25;2.90;;;18.40;99.90;;;-141.84;60.21;21204.22;4973829;28;20757;-62
2023/09/14 09:09:23;;;;;;;6.25;2.60;;;18.40;99.90;;;-141.84;60.96;21110.69;4990489;28;20606;-62
2023/09/14 09:11:53;;;;;;;5.95;3.05;;;18.20;99.90;;;-141.84;59.97;21143.22;4983275;28;20335;-64
2023/09/14 09:14:23;;;;;;;5.80;2.78;;;18.20;99.90;;;-141.84;61.23;21092.41;4983167;28;20245;-63
2023/09/14 09:16:52;;;;;;;6.25;2.65;;;18.20;99.90;;;-141.84;61.62;21070.03;4977933;28;20231;-62
2023/09/14 09:19:20;;;;;;;7.07;3.20;;;18.20;99.90;;;-141.84;61.53;21043.59;4983713;28;20233;-62
2023/09/14 09:21:50;;;;;;;5.53;2.88;;;18.10;99.90;;;-141.84;62.11;21047.69;4983385;28;20771;-62
2023/09/14 09:24:27;;;;;;;5.00;2.85;;;17.90;99.90;;;-141.84;61.70;21027.34;4983730;28;20287;-62
2023/09/14 09:26:56;;;;;;;4.80;2.95;;;17.80;99.90;;;-141.84;61.15;21017.19;4980184;28;20713;-62
2023/09/14 09:29:24;;;;;;;4.13;2.83;;;17.90;99.90;;;-141.84;62.37;20986.69;4982988;28;20242;-63
2023/09/14 09:31:53;;;;;;;5.25;2.78;;;17.80;99.90;;;-141.84;63.67;20939.94;4983222;28;20339;-63
2023/09/14 09:34:25;;;;;;;3.92;2.40;;;17.70;99.90;;;-141.84;63.18;20931.78;4983201;28;20286;-63
2023/09/14 09:36:59;;;;;;;4.90;2.10;;;17.50;99.90;;;-141.84;63.30;20954.16;4992553;28;20253;-62
2023/09/14 09:39:28;;;;;;;3.53;2.25;;;17.60;99.90;;;-141.84;63.82;20919.59;5002809;28;20242;-62
2023/09/14 09:41:56;;;;;;;5.85;2.40;;;17.50;99.90;;;-141.84;64.61;20872.84;5002573;28;20757;-62
2023/09/14 09:44:27;;;;;;;6.80;2.53;;;17.50;99.90;;;-141.84;64.89;20913.50;4983404;28;20262;-62
2023/09/14 09:46:57;;;;;;;4.10;2.20;;;17.50;99.90;;;-141.84;61.86;20994.81;4983009;28;20270;-63
2023/09/14 09:49:30;;;;;;;5.32;2.58;;;17.70;99.90;;;-141.84;62.53;20968.38;4975207;28;20239;-63
2023/09/14 09:52:02;;;;;;;5.25;2.85;;;17.70;99.90;;;-141.84;62.82;21004.97;4974982;28;20298;-63
2023/09/14 09:54:32;;;;;;;2.95;2.35;;;17.70;99.90;;;-141.84;63.11;21033.44;4976029;28;20222;-64
2023/09/14 09:57:03;;;;;;;6.45;2.90;;;17.80;99.90;;;-141.84;62.77;21045.63;4983929;28;20668;-63
2023/09/14 09:59:33;;;;;;;4.97;3.30;;;17.90;99.90;;;-141.84;61.24;21151.34;4982856;28;20235;-63
2023/09/14 10:02:02;;;;;;;5.20;2.58;;;18.10;99.90;;;-141.84;60.46;21143.22;4982992;28;20293;-63
2023/09/14 10:04:31;;;;;;;6.70;2.70;;;18.20;99.90;;;-141.84;59.81;21204.22;4976300;28;20239;-62
2023/09/14 10:07:04;;;;;;;5.57;2.60;;;18.50;99.90;;;-141.84;57.90;21277.41;4993761;28;20603;-63
2023/09/14 10:09:35;;;;;;;4.68;2.53;;;18.80;99.90;;;-141.84;57.33;21346.53;4988018;28;20219;-63
2023/09/14 10:12:04;;;;;;;5.13;2.42;;;19.00;99.90;;;-141.84;57.64;21411.59;4983473;28;20682;-62
2023/09/14 10:14:36;;;;;;;5.57;2.38;;;19.40;99.90;;;-141.84;57.34;21464.47;4975376;28;20246;-63
2023/09/14 10:17:12;;;;;;;3.58;2.40;;;19.50;99.90;;;-141.84;57.22;21381.09;4983002;28;20239;-62
2023/09/14 10:19:43;;;;;;;6.13;2.70;;;19.40;99.90;;;-141.84;58.65;21478.69;4983168;28;20297;-63